Time;durP1;ratioP1;P1;durP2;ratioP2;P2;SDS_P1;SDS_P2;PMS_P1;PMS_P2;Temp;Humidity;BMP_temperature;BMP_pressure;BME280_temperature;BME280_humidity;BME280_pressure;Samples;Min_cycle;Max_cycle;Signal;HPM_P1;HPM_P2
2022/03/03 00:00:13;;;;;;;19.70;14.13;;;;;;;-0.62;68.59;95750.59;4962938;28;20206;-79
2022/03/03 00:02:39;;;;;;;22.00;13.73;;;;;;;-0.74;69.54;95743.53;4944959;28;20197;-78
2022/03/03 00:05:04;;;;;;;21.00;13.87;;;;;;;-0.82;69.65;95735.41;4945858;28;20350;-79
2022/03/03 00:07:29;;;;;;;20.53;14.67;;;;;;;-0.88;69.88;95738.28;4961340;28;20249;-80
2022/03/03 00:09:55;;;;;;;21.70;14.20;;;;;;;-0.96;70.23;95731.00;4961277;28;20629;-79
2022/03/03 00:12:20;;;;;;;24.50;14.60;;;;;;;-0.99;70.43;95740.50;4944736;28;20616;-80
2022/03/03 00:14:45;;;;;;;20.50;14.13;;;;;;;-1.04;70.74;95742.47;4961172;28;20181;-78
2022/03/03 00:17:14;;;;;;;21.53;14.53;;;;;;;-1.09;71.00;95737.56;4961058;28;20192;-78
2022/03/03 00:19:40;;;;;;;19.47;13.73;;;;;;;-1.15;71.25;95740.41;4960087;28;20206;-79
2022/03/03 00:22:06;;;;;;;19.47;14.03;;;;;;;-1.10;71.22;95738.47;4959023;28;20193;-80
2022/03/03 00:24:31;;;;;;;22.07;14.37;;;;;;;-1.08;71.20;95734.13;4977291;28;20217;-80
2022/03/03 00:26:56;;;;;;;23.53;14.13;;;;;;;-1.15;71.21;95742.94;4960095;28;20182;-79
2022/03/03 00:29:22;;;;;;;20.87;13.80;;;;;;;-1.09;70.86;95735.03;4944260;28;20208;-80
2022/03/03 00:31:47;;;;;;;23.47;14.27;;;;;;;-1.06;70.55;95734.03;4976899;28;20209;-80
2022/03/03 00:34:13;;;;;;;21.77;13.40;;;;;;;-1.06;70.80;95732.34;4959842;28;20184;-81
2022/03/03 00:36:39;;;;;;;23.33;14.20;;;;;;;-1.10;70.81;95735.91;4977142;28;20633;-80
2022/03/03 00:39:04;;;;;;;25.13;14.23;;;;;;;-1.06;71.06;95737.44;4943164;28;20212;-80
2022/03/03 00:41:30;;;;;;;21.53;14.53;;;;;;;-0.92;70.53;95729.94;4943102;28;20207;-80
2022/03/03 00:43:56;;;;;;;24.27;13.77;;;;;;;-0.87;69.97;95733.13;4959027;28;20583;-79
2022/03/03 00:46:21;;;;;;;23.77;14.63;;;;;;;-0.93;70.08;95735.94;4943648;28;20181;-80
2022/03/03 00:48:49;;;;;;;22.83;12.87;;;;;;;-0.89;70.15;95739.97;4943262;28;20544;-79
2022/03/03 00:51:15;;;;;;;21.20;13.97;;;;;;;-0.80;69.46;95732.78;4942568;28;20221;-80
2022/03/03 00:53:40;;;;;;;18.07;13.40;;;;;;;-0.78;68.61;95741.22;4942973;28;20232;-80
2022/03/03 00:56:05;;;;;;;21.03;13.70;;;;;;;-0.81;68.69;95733.69;4959279;28;20185;-79
2022/03/03 00:58:31;;;;;;;20.77;13.77;;;;;;;-0.89;68.73;95728.97;4942991;28;20245;-79
2022/03/03 01:00:56;;;;;;;19.07;13.47;;;;;;;-0.94;68.92;95734.31;4976730;28;20182;-78
2022/03/03 01:03:21;;;;;;;20.17;13.70;;;;;;;-0.99;68.98;95735.41;4974589;28;20640;-79
2022/03/03 01:05:47;;;;;;;19.77;13.93;;;;;;;-1.04;69.31;95730.53;4941917;28;20197;-78
2022/03/03 01:08:13;;;;;;;20.90;14.47;;;;;;;-1.03;69.06;95726.28;4976604;28;20180;-78
2022/03/03 01:10:39;;;;;;;22.53;14.60;;;;;;;-1.00;68.48;95726.94;4942815;28;20675;-79
2022/03/03 01:13:04;;;;;;;20.53;13.37;;;;;;;-1.06;68.78;95718.75;4958351;28;20198;-78
2022/03/03 01:15:29;;;;;;;22.13;13.73;;;;;;;-1.08;68.39;95718.00;4942951;28;20278;-78
2022/03/03 01:17:55;;;;;;;22.83;13.30;;;;;;;-1.13;68.61;95717.41;4958557;28;20306;-78
2022/03/03 01:20:20;;;;;;;22.93;14.07;;;;;;;-1.19;69.16;95727.00;4957666;28;20693;-78
2022/03/03 01:22:45;;;;;;;21.20;14.97;;;;;;;-1.26;69.24;95720.53;4957480;28;20687;-79
2022/03/03 01:25:11;;;;;;;22.47;14.33;;;;;;;-1.31;69.37;95719.94;4948865;28;20210;-79
2022/03/03 01:27:38;;;;;;;23.00;14.40;;;;;;;-1.39;69.96;95723.72;4955875;29;20204;-80
2022/03/03 01:30:04;;;;;;;22.30;14.60;;;;;;;-1.42;70.14;95728.06;4939824;29;20769;-79
2022/03/03 01:32:29;;;;;;;23.07;14.23;;;;;;;-1.42;69.62;95714.50;4923425;29;20215;-79
2022/03/03 01:34:55;;;;;;;21.53;14.67;;;;;;;-1.34;68.92;95714.13;4939992;29;20649;-80
2022/03/03 01:37:20;;;;;;;22.17;13.43;;;;;;;-1.18;68.56;95715.06;4972256;28;20709;-79
2022/03/03 01:39:45;;;;;;;19.83;14.63;;;;;;;-1.12;67.78;95711.41;4978307;28;20738;-79
2022/03/03 01:42:14;;;;;;;21.07;13.50;;;;;;;-1.08;67.36;95703.53;4995194;28;20682;-79
2022/03/03 01:44:43;;;;;;;21.63;14.30;;;;;;;-1.05;67.19;95702.59;4978516;28;20264;-80
2022/03/03 01:47:22;;;;;;;20.73;13.63;;;;;;;-1.04;66.76;95704.22;4978373;28;20189;-80
2022/03/03 01:49:48;;;;;;;20.50;13.73;;;;;;;-1.10;67.17;95699.41;4961932;28;20175;-79
2022/03/03 01:52:13;;;;;;;23.00;14.47;;;;;;;-1.18;67.28;95697.22;4961324;28;20258;-81
2022/03/03 01:54:39;;;;;;;23.70;13.87;;;;;;;-1.24;67.91;95702.59;4978013;28;20187;-79
2022/03/03 01:57:06;;;;;;;20.20;13.97;;;;;;;-1.35;68.04;95692.94;4961676;28;20180;-80
2022/03/03 01:59:32;;;;;;;20.90;13.87;;;;;;;-1.35;68.34;95694.66;4977789;28;20205;-78
2022/03/03 02:01:58;;;;;;;24.13;14.37;;;;;;;-1.31;67.08;95693.63;4960917;28;20183;-78
2022/03/03 02:04:23;;;;;;;20.43;14.23;;;;;;;-1.41;67.41;95693.25;4961365;28;20175;-78
2022/03/03 02:06:49;;;;;;;24.60;14.40;;;;;;;-1.45;67.66;95686.63;4977595;28;20203;-79
2022/03/03 02:09:14;;;;;;;20.57;13.17;;;;;;;-1.51;67.91;95685.16;4961497;28;20182;-78
2022/03/03 02:11:40;;;;;;;23.20;13.63;;;;;;;-1.54;67.76;95692.16;4976788;28;20184;-79
2022/03/03 02:14:05;;;;;;;22.10;13.10;;;;;;;-1.63;67.96;95693.41;4974146;28;20185;-78
2022/03/03 02:16:30;;;;;;;22.57;14.03;;;;;;;-1.71;68.29;95700.56;4973967;28;20185;-78
2022/03/03 02:18:56;;;;;;;18.93;13.47;;;;;;;-1.81;68.72;95694.22;4958278;28;20268;-79
2022/03/03 02:21:22;;;;;;;22.10;14.37;;;;;;;-1.84;69.39;95694.38;4958673;28;20178;-79
2022/03/03 02:23:47;;;;;;;22.27;13.90;;;;;;;-1.91;69.25;95693.00;4958305;28;20213;-80
2022/03/03 02:26:18;;;;;;;20.77;13.80;;;;;;;-1.99;69.29;95698.44;4943454;28;20252;-79
2022/03/03 02:28:45;;;;;;;22.80;14.37;;;;;;;-2.05;69.45;95691.88;4975617;28;20185;-79
2022/03/03 02:31:10;;;;;;;23.00;12.90;;;;;;;-2.09;69.99;95692.09;4975366;28;20192;-81
2022/03/03 02:33:36;;;;;;;25.07;13.40;;;;;;;-2.12;69.78;95687.13;4975306;28;20202;-81
2022/03/03 02:36:18;;;;;;;21.27;13.07;;;;;;;-2.16;70.55;95685.63;4959428;28;20195;-81
2022/03/03 02:38:45;;;;;;;21.23;13.83;;;;;;;-2.24;70.55;95680.88;4959049;28;20262;-79
2022/03/03 02:41:10;;;;;;;22.43;13.80;;;;;;;-2.23;70.53;95682.53;4974906;28;20178;-79
2022/03/03 03:02:30;;;;;;;;;;;;;;;;;;;;;
2022/03/03 03:24:19;;;;;;;23.03;13.40;;;;;;;-2.60;72.96;95655.31;5025797;28;20234;-79
2022/03/03 03:27:51;;;;;;;24.27;13.90;;;;;;;-2.69;73.12;95653.16;4950922;28;20531;-79
2022/03/03 03:30:54;;;;;;;22.10;13.33;;;;;;;-2.70;73.09;95659.16;4892471;29;20671;-79
2022/03/03 03:34:12;;;;;;;21.63;13.57;;;;;;;-2.76;73.40;95650.06;4876941;29;20208;-79
2022/03/03 03:37:32;;;;;;;24.67;14.60;;;;;;;-2.77;73.87;95650.94;4855808;29;20201;-79
2022/03/03 03:40:31;;;;;;;23.37;13.90;;;;;;;-2.75;74.16;95649.16;4819729;29;20205;-79
2022/03/03 03:47:23;;;;;;;;;;;;;;;;;;;;;
2022/03/03 03:57:47;;;;;;;;;;;;;;;;;;;;;
2022/03/03 04:04:12;;;;;;;23.67;13.80;;;;;;;-2.98;73.77;95626.44;4746444;30;20337;-79
2022/03/03 04:45:43;;;;;;;;;;;;;;;;;;;;;
2022/03/03 04:54:55;;;;;;;;;;;;;;;;;;;;;
2022/03/03 04:58:21;;;;;;;45.17;22.37;;;;;;;-3.10;72.80;95617.59;4999759;28;20677;-79
2022/03/03 05:04:14;;;;;;;53.63;26.60;;;;;;;-3.16;72.68;95608.53;4880829;29;20208;-80
2022/03/03 05:11:10;;;;;;;24.73;12.93;;;;;;;-3.20;72.80;95606.19;4807480;29;20225;-79
2022/03/03 05:13:41;;;;;;;19.70;12.70;;;;;;;-3.26;72.61;95594.56;4793400;29;20241;-78
2022/03/03 05:16:16;;;;;;;20.53;13.07;;;;;;;-3.24;73.07;95600.41;4808120;29;20220;-79
2022/03/03 05:18:51;;;;;;;22.73;13.00;;;;;;;-3.24;72.91;95587.72;4792848;29;20266;-77
2022/03/03 05:21:19;;;;;;;23.77;14.90;;;;;;;-3.20;72.57;95585.84;4791171;29;20271;-78
2022/03/03 05:23:59;;;;;;;22.50;14.30;;;;;;;-3.19;72.87;95585.78;4791894;29;20317;-78
2022/03/03 05:26:45;;;;;;;22.33;14.43;;;;;;;-3.16;72.49;95587.41;4806808;29;20210;-78
2022/03/03 05:29:27;;;;;;;18.80;13.60;;;;;;;-3.15;72.33;95578.88;4805840;29;20301;-77
2022/03/03 05:32:01;;;;;;;21.17;13.07;;;;;;;-3.11;72.24;95579.56;4806219;29;20285;-78
2022/03/03 05:34:31;;;;;;;20.40;13.67;;;;;;;-3.10;72.06;95576.13;4805710;29;20247;-78
2022/03/03 05:37:00;;;;;;;21.20;12.53;;;;;;;-3.11;72.38;95577.84;4807664;29;20222;-79
2022/03/03 05:39:27;;;;;;;18.50;12.67;;;;;;;-3.11;71.93;95575.31;4807790;29;20304;-79
2022/03/03 05:41:54;;;;;;;18.27;11.57;;;;;;;-3.05;72.12;95585.22;4856441;29;20264;-79
2022/03/03 05:44:20;;;;;;;22.90;12.30;;;;;;;-3.01;71.98;95591.81;4854306;29;20205;-77
2022/03/03 05:46:47;;;;;;;20.63;11.30;;;;;;;-3.00;71.45;95592.66;4951743;28;20192;-78
2022/03/03 05:49:12;;;;;;;22.87;12.07;;;;;;;-3.01;71.82;95594.34;4959178;28;20279;-78
2022/03/03 05:51:37;;;;;;;21.27;13.17;;;;;;;-3.00;71.72;95587.59;4958169;28;20228;-77
2022/03/03 05:54:03;;;;;;;25.90;14.07;;;;;;;-3.00;71.67;95587.59;4958800;28;20310;-78
2022/03/03 05:56:32;;;;;;;18.60;12.43;;;;;;;-3.00;72.08;95582.50;4974628;28;20570;-78
2022/03/03 05:58:58;;;;;;;20.17;11.80;;;;;;;-2.96;71.90;95573.84;4965783;28;20299;-78
2022/03/03 06:01:24;;;;;;;22.70;12.63;;;;;;;-2.91;71.35;95571.94;4996452;28;20195;-79
2022/03/03 06:03:50;;;;;;;20.47;11.80;;;;;;;-2.87;71.06;95573.44;4967060;28;20675;-78
2022/03/03 06:06:21;;;;;;;23.47;12.07;;;;;;;-2.77;70.65;95577.22;4966053;28;20196;-77
2022/03/03 06:09:05;;;;;;;20.17;11.50;;;;;;;-2.73;70.60;95578.78;4978738;28;20180;-78
2022/03/03 06:11:31;;;;;;;23.20;13.80;;;;;;;-2.70;69.86;95571.00;4977870;28;20187;-78
2022/03/03 06:14:05;;;;;;;21.57;13.07;;;;;;;-2.60;69.91;95577.31;4995710;28;20242;-79
2022/03/03 06:16:31;;;;;;;22.07;12.77;;;;;;;-2.54;69.37;95577.97;4979010;28;20195;-78
2022/03/03 06:18:58;;;;;;;18.70;11.10;;;;;;;-2.40;68.72;95578.16;4963012;28;20212;-80
2022/03/03 06:21:24;;;;;;;21.07;11.50;;;;;;;-2.39;68.37;95577.25;4977794;28;20346;-80
2022/03/03 06:23:49;;;;;;;21.83;12.37;;;;;;;-2.34;68.46;95575.34;4995715;28;20334;-78
2022/03/03 06:26:16;;;;;;;21.50;12.23;;;;;;;-2.30;67.66;95570.06;4995248;28;20192;-78
2022/03/03 06:28:42;;;;;;;19.33;11.37;;;;;;;-2.15;67.13;95573.59;4979111;28;20211;-79
2022/03/03 06:31:07;;;;;;;20.20;11.50;;;;;;;-2.07;66.62;95575.81;4978827;28;20200;-79
2022/03/03 06:33:33;;;;;;;19.40;11.07;;;;;;;-1.98;66.50;95582.19;4994328;28;20259;-79
2022/03/03 06:35:59;;;;;;;16.20;11.27;;;;;;;-1.96;66.22;95582.94;4978409;28;20614;-78
2022/03/03 06:38:25;;;;;;;20.50;12.13;;;;;;;-1.93;66.48;95582.81;4996275;28;20216;-78
2022/03/03 06:40:50;;;;;;;16.70;11.30;;;;;;;-1.90;66.29;95588.56;4994828;28;20180;-78
2022/03/03 06:43:16;;;;;;;18.20;11.10;;;;;;;-1.92;66.31;95584.47;4994629;28;20267;-79
2022/03/03 06:45:41;;;;;;;19.50;11.90;;;;;;;-1.94;66.64;95583.69;4995247;28;20180;-79
2022/03/03 06:48:06;;;;;;;19.20;11.13;;;;;;;-1.90;66.24;95580.09;4996426;28;20234;-80
2022/03/03 06:50:36;;;;;;;16.50;10.80;;;;;;;-1.88;66.13;95575.78;4997279;28;20180;-80
2022/03/03 06:53:02;;;;;;;19.30;12.40;;;;;;;-1.88;66.66;95565.59;4978968;28;20257;-79
2022/03/03 06:55:28;;;;;;;21.50;11.83;;;;;;;-1.84;67.13;95556.94;4996270;28;20184;-79
2022/03/03 06:57:55;;;;;;;18.87;11.03;;;;;;;-1.80;65.67;95553.31;4996639;28;20200;-79
2022/03/03 07:00:26;;;;;;;25.47;11.57;;;;;;;-1.62;65.30;95546.53;4979930;28;20176;-79
2022/03/03 07:02:52;;;;;;;18.07;11.40;;;;;;;-1.51;64.86;95545.09;4978065;28;20763;-79
2022/03/03 07:05:18;;;;;;;19.23;11.60;;;;;;;-1.39;64.79;95537.78;4979203;28;20663;-80
2022/03/03 07:07:45;;;;;;;16.70;10.60;;;;;;;-1.34;64.35;95538.34;4995347;28;20180;-79
2022/03/03 07:10:14;;;;;;;18.40;11.20;;;;;;;-1.22;63.82;95542.84;4979423;28;20176;-78
2022/03/03 07:12:40;;;;;;;18.23;10.87;;;;;;;-1.13;63.68;95539.84;4991094;28;20191;-79
2022/03/03 07:15:08;;;;;;;18.77;10.70;;;;;;;-1.09;63.29;95546.41;4991162;28;20220;-79
2022/03/03 07:17:39;;;;;;;17.10;10.90;;;;;;;-1.04;64.26;95549.56;4994732;28;20352;-79
2022/03/03 07:20:06;;;;;;;22.67;13.47;;;;;;;-1.05;64.97;95554.75;4991564;28;20238;-79
2022/03/03 07:22:43;;;;;;;21.50;13.77;;;;;;;-0.97;64.68;95548.38;4981642;28;20204;-82
2022/03/03 07:25:11;;;;;;;18.57;12.13;;;;;;;-0.84;63.55;95552.84;4998494;28;20174;-79
2022/03/03 07:27:44;;;;;;;21.83;12.17;;;;;;;-0.68;63.54;95558.78;4963777;28;20186;-79
2022/03/03 07:30:13;;;;;;;19.77;11.63;;;;;;;-0.58;62.84;95553.13;4979196;28;20180;-80
2022/03/03 07:32:46;;;;;;;18.33;11.03;;;;;;;-0.44;62.35;95534.56;4960507;28;20206;-80
2022/03/03 07:35:14;;;;;;;15.10;10.40;;;;;;;-0.26;61.57;95547.25;4983098;28;20645;-78
2022/03/03 07:37:53;;;;;;;18.70;10.47;;;;;;;-0.13;60.32;95548.22;4982468;28;20208;-77
2022/03/03 07:40:19;;;;;;;19.13;10.37;;;;;;;-0.02;60.27;95544.16;4976802;28;20198;-78
2022/03/03 07:42:45;;;;;;;19.00;10.73;;;;;;;0.13;59.37;95541.69;4960051;28;20688;-79
2022/03/03 07:45:11;;;;;;;18.53;10.40;;;;;;;0.25;58.69;95539.25;4967182;28;20189;-79
2022/03/03 07:47:36;;;;;;;16.30;9.97;;;;;;;0.41;57.76;95546.91;4981909;28;20190;-79
2022/03/03 07:50:03;;;;;;;18.60;10.40;;;;;;;0.57;56.91;95551.97;4984191;28;20179;-79
2022/03/03 07:52:29;;;;;;;16.13;10.20;;;;;;;0.71;56.68;95549.47;4999368;28;20629;-79
2022/03/03 07:54:54;;;;;;;19.57;10.83;;;;;;;0.78;56.13;95555.03;4979222;28;20310;-80
2022/03/03 07:57:21;;;;;;;19.63;10.60;;;;;;;0.91;56.18;95550.06;4963970;28;20698;-80
2022/03/03 07:59:48;;;;;;;17.60;10.77;;;;;;;1.02;56.20;95552.78;4963977;28;20191;-79
2022/03/03 08:02:22;;;;;;;16.53;9.90;;;;;;;1.13;55.28;95555.53;4963303;28;20231;-79
2022/03/03 08:04:50;;;;;;;16.53;11.03;;;;;;;1.21;53.74;95555.91;4966081;28;20187;-79
2022/03/03 08:07:16;;;;;;;19.03;11.43;;;;;;;1.32;52.47;95568.06;4983489;28;20527;-80
2022/03/03 08:09:41;;;;;;;18.60;12.25;;;;;;;1.38;51.68;95558.28;4982615;28;20455;-80
2022/03/03 08:12:10;;;;;;;16.07;10.80;;;;;;;1.50;51.86;95554.16;4982644;28;20196;-79
2022/03/03 08:14:36;;;;;;;16.53;10.40;;;;;;;1.56;52.08;95556.38;4967794;28;20214;-79
2022/03/03 08:17:02;;;;;;;63.77;16.77;;;;;;;1.61;52.46;95558.66;4982723;28;20277;-79
2022/03/03 08:19:28;;;;;;;19.17;11.67;;;;;;;1.72;52.37;95548.56;4983666;28;20282;-79
2022/03/03 08:21:53;;;;;;;18.27;11.60;;;;;;;1.83;52.17;95547.91;4967810;28;20176;-78
2022/03/03 08:24:19;;;;;;;21.07;11.47;;;;;;;1.89;51.97;95538.13;4968297;28;20198;-79
2022/03/03 08:26:45;;;;;;;16.87;10.87;;;;;;;1.97;51.87;95535.09;4967227;28;20203;-77
2022/03/03 08:29:11;;;;;;;16.00;11.07;;;;;;;2.07;51.52;95541.28;5001332;28;20180;-79
2022/03/03 08:31:49;;;;;;;15.63;11.00;;;;;;;2.16;51.76;95543.25;4982085;28;20179;-78
2022/03/03 08:34:42;;;;;;;15.87;10.93;;;;;;;2.31;51.37;95544.03;4983935;28;20180;-78
2022/03/03 08:37:13;;;;;;;19.55;13.98;;;;;;;2.43;51.59;95543.25;4981160;28;20427;-78
2022/03/03 08:39:38;;;;;;;21.57;12.67;;;;;;;2.59;51.58;95549.97;4981867;28;20178;-78
2022/03/03 08:42:08;;;;;;;18.00;11.50;;;;;;;2.61;53.34;95561.75;4982012;28;20575;-77
2022/03/03 08:44:34;;;;;;;24.80;15.43;;;;;;;2.75;52.00;95554.00;4981261;28;20176;-78
2022/03/03 08:47:02;;;;;;;22.63;13.47;;;;;;;2.62;52.06;95552.31;4981032;28;20255;-78
2022/03/03 08:49:32;;;;;;;27.63;16.37;;;;;;;2.72;52.61;95553.34;4981433;28;20199;-77
2022/03/03 08:51:57;;;;;;;23.70;13.73;;;;;;;2.75;53.29;95561.69;4982208;28;20180;-78
2022/03/03 08:54:23;;;;;;;22.87;14.53;;;;;;;2.70;53.39;95565.47;4965917;28;20661;-78
2022/03/03 08:56:48;;;;;;;21.83;14.40;;;;;;;2.88;54.01;95558.31;4983529;28;20196;-78
2022/03/03 08:59:13;;;;;;;23.63;13.43;;;;;;;2.74;54.01;95565.19;4998292;28;20205;-77
2022/03/03 09:01:38;;;;;;;22.27;13.37;;;;;;;2.69;53.56;95572.34;4996643;28;20250;-78
2022/03/03 09:04:04;;;;;;;18.33;12.90;;;;;;;2.59;53.10;95568.72;4980051;28;20575;-78
2022/03/03 09:06:31;;;;;;;21.90;13.70;;;;;;;2.47;53.90;95570.34;4980213;28;20199;-79
2022/03/03 09:08:57;;;;;;;23.33;13.37;;;;;;;2.67;53.41;95565.66;4979543;28;20179;-78
2022/03/03 09:11:23;;;;;;;21.77;13.73;;;;;;;2.48;53.95;95559.16;4979518;28;20675;-79
2022/03/03 09:13:48;;;;;;;21.33;13.53;;;;;;;2.42;53.97;95571.53;4995106;28;20222;-78
2022/03/03 09:16:16;;;;;;;20.47;13.10;;;;;;;2.45;54.44;95572.16;4995833;28;20571;-78
2022/03/03 09:18:41;;;;;;;25.73;14.30;;;;;;;2.41;54.38;95570.72;4979186;28;20190;-78
2022/03/03 09:21:06;;;;;;;24.97;15.53;;;;;;;2.59;54.63;95570.47;4995999;28;20267;-78
2022/03/03 09:23:32;;;;;;;23.57;15.00;;;;;;;2.49;54.40;95576.19;4961803;28;20207;-78
2022/03/03 09:25:57;;;;;;;22.47;14.80;;;;;;;2.54;54.36;95575.88;4978395;28;20743;-79
2022/03/03 09:28:22;;;;;;;25.03;15.23;;;;;;;2.51;55.25;95571.78;4978188;28;20172;-78
2022/03/03 09:30:49;;;;;;;25.70;14.90;;;;;;;2.76;55.47;95576.16;4978459;28;20200;-78
2022/03/03 09:41:00;;;;;;;23.67;14.70;;;;;;;2.91;54.40;95576.06;1323296;23;20518;-79
2022/03/03 09:43:27;;;;;;;24.43;15.07;;;;;;;2.99;54.46;95582.31;4962262;28;20227;-79
2022/03/03 09:45:53;;;;;;;43.27;23.67;;;;;;;2.96;54.74;95587.66;4994813;28;20231;-79
2022/03/03 09:48:18;;;;;;;24.87;15.77;;;;;;;3.05;54.25;95581.13;4962325;28;20296;-78
2022/03/03 09:50:43;;;;;;;26.77;15.30;;;;;;;3.07;54.67;95585.22;4962462;28;20215;-79
2022/03/03 09:53:16;;;;;;;21.70;14.60;;;;;;;3.21;55.27;95588.63;4995212;28;20688;-78
2022/03/03 09:55:42;;;;;;;21.77;14.80;;;;;;;3.08;55.69;95589.41;4978444;28;20255;-78
2022/03/03 09:58:07;;;;;;;24.57;16.20;;;;;;;3.18;55.05;95581.97;4978292;28;20248;-77
2022/03/03 10:00:37;;;;;;;25.03;16.27;;;;;;;3.20;54.98;95576.72;4995653;28;20662;-77
2022/03/03 10:03:08;;;;;;;22.53;14.83;;;;;;;3.18;55.59;95574.25;4977279;28;20212;-79
2022/03/03 10:05:42;;;;;;;24.93;16.10;;;;;;;3.42;54.83;95574.34;4977989;28;20191;-78
2022/03/03 10:08:10;;;;;;;23.40;14.87;;;;;;;3.18;53.76;95574.25;4962402;28;20184;-79
2022/03/03 10:10:38;;;;;;;22.30;14.50;;;;;;;3.31;54.47;95572.50;4979836;28;20200;-77
2022/03/03 10:13:04;;;;;;;26.53;15.73;;;;;;;3.29;54.33;95571.78;4961809;28;20230;-78
2022/03/03 10:15:30;;;;;;;30.53;16.47;;;;;;;3.40;52.86;95576.19;4978201;28;20177;-77
2022/03/03 10:18:06;;;;;;;30.13;15.87;;;;;;;3.43;52.78;95581.13;4962458;28;20250;-79
2022/03/03 10:20:38;;;;;;;27.13;17.30;;;;;;;3.67;52.89;95578.66;4994110;28;20182;-80
2022/03/03 10:23:07;;;;;;;24.20;16.53;;;;;;;3.73;53.11;95574.84;4978422;28;20195;-80
2022/03/03 10:25:35;;;;;;;24.97;16.07;;;;;;;3.73;53.00;95587.69;4962258;28;20179;-80
2022/03/03 10:28:16;;;;;;;26.53;17.30;;;;;;;3.52;52.98;95584.81;4961841;28;20613;-79
2022/03/03 10:30:58;;;;;;;26.60;16.67;;;;;;;3.43;53.76;95596.53;4963174;28;20176;-79
2022/03/03 10:33:26;;;;;;;26.87;16.67;;;;;;;3.45;54.03;95589.56;4962367;28;20192;-79
2022/03/03 10:35:57;;;;;;;26.80;17.33;;;;;;;3.42;53.67;95592.31;4995773;28;20548;-79
2022/03/03 10:38:22;;;;;;;27.67;17.03;;;;;;;3.57;53.35;95590.47;4996006;28;20227;-79
2022/03/03 10:40:48;;;;;;;26.27;17.50;;;;;;;3.55;51.93;95595.72;4994425;28;20187;-79
2022/03/03 10:43:13;;;;;;;25.07;16.80;;;;;;;3.66;53.08;95589.84;4975288;28;20207;-80
2022/03/03 10:45:53;;;;;;;29.17;17.20;;;;;;;3.64;51.67;95594.28;4976786;28;20176;-79
2022/03/03 10:48:23;;;;;;;28.27;16.23;;;;;;;3.41;51.51;95590.69;4960494;28;20274;-78
2022/03/03 10:50:50;;;;;;;27.77;17.60;;;;;;;3.62;51.82;95589.25;4976704;28;20395;-79
2022/03/03 10:53:18;;;;;;;27.53;17.53;;;;;;;3.72;51.83;95588.63;4975728;28;20204;-79
2022/03/03 10:56:04;;;;;;;25.77;16.97;;;;;;;3.77;52.61;95581.41;4960817;28;20194;-78
2022/03/03 10:58:58;;;;;;;28.97;18.17;;;;;;;3.70;50.90;95579.25;4960200;28;20215;-79
2022/03/03 11:01:30;;;;;;;29.67;17.27;;;;;;;3.81;51.51;95578.53;4992818;28;20187;-78
2022/03/03 11:03:56;;;;;;;31.77;19.70;;;;;;;3.80;51.29;95579.47;4960336;28;20646;-79
2022/03/03 11:06:24;;;;;;;28.03;16.63;;;;;;;3.84;49.52;95570.59;4976984;28;20172;-79
2022/03/03 11:08:51;;;;;;;26.57;16.87;;;;;;;3.90;50.13;95559.91;4977753;28;20718;-79
2022/03/03 11:11:18;;;;;;;26.33;17.60;;;;;;;4.05;50.72;95560.56;4959387;28;20567;-79
2022/03/03 11:13:45;;;;;;;22.97;16.30;;;;;;;4.24;50.90;95558.38;4992538;28;20778;-79
2022/03/03 11:16:11;;;;;;;27.27;16.80;;;;;;;4.40;51.10;95558.06;4976620;28;20187;-78
2022/03/03 11:18:36;;;;;;;26.57;16.57;;;;;;;4.58;48.86;95563.66;4976400;28;20208;-79
2022/03/03 11:21:02;;;;;;;24.33;16.60;;;;;;;4.56;47.53;95560.38;4976615;28;20180;-78
2022/03/03 11:23:43;;;;;;;21.87;14.90;;;;;;;4.46;45.92;95554.25;4975876;28;20767;-78
2022/03/03 11:26:19;;;;;;;25.53;15.67;;;;;;;4.50;47.46;95553.91;4976355;28;20743;-79
2022/03/03 11:28:58;;;;;;;24.53;16.53;;;;;;;4.71;47.78;95551.56;4960510;28;20207;-79
2022/03/03 11:31:30;;;;;;;23.03;15.07;;;;;;;4.85;46.50;95547.94;4975805;28;20228;-79
2022/03/03 11:34:33;;;;;;;25.40;16.87;;;;;;;4.96;48.50;95527.41;4976121;28;20323;-78
2022/03/03 11:37:29;;;;;;;23.93;16.30;;;;;;;5.11;48.79;95523.69;4993513;28;20175;-78
2022/03/03 11:39:59;;;;;;;24.20;15.97;;;;;;;5.17;48.30;95521.59;4976368;28;20193;-79
2022/03/03 11:42:33;;;;;;;23.93;16.00;;;;;;;4.92;49.18;95523.41;4979655;28;20212;-78
2022/03/03 11:45:01;;;;;;;25.53;15.60;;;;;;;5.22;49.27;95514.34;4963453;28;20223;-79
2022/03/03 11:47:27;;;;;;;30.43;16.90;;;;;;;5.15;49.10;95508.03;4980829;28;20258;-78
2022/03/03 11:50:16;;;;;;;25.33;16.97;;;;;;;5.25;48.44;95508.97;4964883;28;20186;-78
2022/03/03 11:52:43;;;;;;;24.03;15.80;;;;;;;5.30;47.91;95502.53;4999760;28;20199;-79
2022/03/03 11:55:34;;;;;;;23.87;16.17;;;;;;;5.29;47.41;95498.31;4980913;28;20180;-79
2022/03/03 11:58:00;;;;;;;22.17;15.30;;;;;;;5.28;46.82;95504.38;4964261;28;20311;-78
2022/03/03 12:00:26;;;;;;;24.10;15.97;;;;;;;5.38;45.59;95500.19;4980180;28;20315;-78
2022/03/03 12:02:56;;;;;;;25.67;16.43;;;;;;;5.53;46.27;95494.81;4979251;28;20199;-79
2022/03/03 12:05:27;;;;;;;20.47;14.47;;;;;;;5.58;43.46;95493.53;4998106;28;20259;-78
2022/03/03 12:07:57;;;;;;;24.33;14.67;;;;;;;5.67;43.23;95492.00;4998613;28;20258;-79
2022/03/03 12:10:22;;;;;;;26.07;16.80;;;;;;;5.66;43.24;95500.66;4980886;28;20187;-79
2022/03/03 12:12:48;;;;;;;27.73;15.50;;;;;;;5.78;42.86;95491.97;4980400;28;20208;-78
2022/03/03 12:15:14;;;;;;;27.27;17.03;;;;;;;5.78;43.15;95491.16;4980689;28;20313;-79
2022/03/03 12:17:48;;;;;;;25.20;16.97;;;;;;;5.81;43.66;95496.88;4982309;28;20204;-78
2022/03/03 12:20:35;;;;;;;27.63;16.90;;;;;;;5.97;44.80;95489.59;4976545;28;20233;-78
2022/03/03 12:23:08;;;;;;;28.97;17.37;;;;;;;6.02;44.46;95478.13;4998856;28;20192;-78
2022/03/03 12:25:50;;;;;;;27.37;18.17;;;;;;;6.18;44.86;95486.25;5000986;28;20184;-78
2022/03/03 12:28:25;;;;;;;27.17;17.53;;;;;;;6.23;44.86;95490.13;4997131;28;20211;-78
2022/03/03 12:30:52;;;;;;;27.90;17.30;;;;;;;6.08;45.05;95480.19;4999333;28;20531;-80
2022/03/03 12:33:24;;;;;;;27.43;17.83;;;;;;;6.06;45.45;95485.50;4962842;28;20200;-80
2022/03/03 12:35:51;;;;;;;28.10;18.00;;;;;;;6.04;45.20;95481.41;4960225;28;20192;-81
2022/03/03 12:38:16;;;;;;;26.67;18.03;;;;;;;6.17;45.99;95488.03;4959844;28;20203;-80
2022/03/03 12:40:42;;;;;;;30.30;19.60;;;;;;;5.96;45.54;95484.56;4979341;28;20194;-80
2022/03/03 13:36:53;;;;;;;26.70;19.03;;;;;;;6.86;45.41;95450.66;4992919;28;20224;-80
2022/03/03 13:39:27;;;;;;;28.47;20.53;;;;;;;6.75;45.15;95448.97;4862983;29;20766;-78
2022/03/03 13:42:16;;;;;;;28.63;19.53;;;;;;;6.85;45.77;95447.25;4864189;29;20811;-80
2022/03/03 13:44:49;;;;;;;30.97;21.10;;;;;;;6.73;45.22;95451.69;4862376;29;20236;-79
2022/03/03 13:47:34;;;;;;;29.30;20.50;;;;;;;6.87;44.80;95452.28;4878009;29;20210;-83
2022/03/03 13:49:59;;;;;;;30.30;21.50;;;;;;;6.75;44.99;95444.63;4877465;29;20270;-80
2022/03/03 14:40:03;;;;;;;;;;;;;;;;;;;;;
2022/03/03 14:43:07;;;;;;;31.23;23.20;;;;;;;6.89;47.32;95447.81;4882678;29;20206;-79
2022/03/03 14:46:23;;;;;;;34.30;24.07;;;;;;;6.91;47.51;95440.78;4880208;29;20198;-79
2022/03/03 14:49:26;;;;;;;31.13;22.97;;;;;;;6.84;48.33;95442.22;4842593;29;20196;-80
2022/03/03 14:51:54;;;;;;;33.87;24.20;;;;;;;6.96;47.76;95444.59;4839267;29;20224;-78
2022/03/03 14:54:20;;;;;;;33.97;24.40;;;;;;;6.86;48.64;95437.75;4859806;29;20220;-77
2022/03/03 14:56:45;;;;;;;32.00;24.17;;;;;;;6.84;48.73;95439.66;4826791;29;20256;-77
2022/03/03 14:59:12;;;;;;;40.63;27.43;;;;;;;6.78;48.73;95435.78;4828225;29;20228;-79
2022/03/03 15:01:37;;;;;;;37.97;25.83;;;;;;;6.87;49.18;95435.03;4856275;29;20279;-77
2022/03/03 15:04:04;;;;;;;38.90;26.23;;;;;;;6.91;48.79;95436.44;4857571;29;20269;-77
2022/03/03 15:06:29;;;;;;;37.57;25.23;;;;;;;6.98;48.68;95437.56;4857957;29;20681;-77
2022/03/03 15:08:55;;;;;;;36.00;25.13;;;;;;;6.95;48.54;95430.06;4842644;29;20181;-77
2022/03/03 15:11:20;;;;;;;32.57;23.83;;;;;;;6.65;48.85;95432.59;4843525;29;20279;-79
2022/03/03 15:13:46;;;;;;;39.00;24.60;;;;;;;6.67;48.92;95428.13;4828951;29;20229;-79
2022/03/03 15:16:11;;;;;;;36.27;23.00;;;;;;;6.84;48.64;95424.97;4859435;29;20760;-77
2022/03/03 15:18:36;;;;;;;32.17;23.40;;;;;;;6.76;48.10;95432.53;4870534;29;20300;-78